createdAt,value
2022-10-06T00:01:07.996Z,1.43
2022-10-06T00:03:37.329Z,1.10
2022-10-06T00:06:06.229Z,1.07
2022-10-06T00:08:35.438Z,1.17
2022-10-06T00:11:03.741Z,1.30
2022-10-06T00:13:32.469Z,3.40
2022-10-06T00:16:01.185Z,1.47
2022-10-06T00:18:31.660Z,1.53
2022-10-06T00:21:01.358Z,1.70
2022-10-06T00:23:30.164Z,1.53
2022-10-06T00:25:58.380Z,2.23
2022-10-06T00:28:27.572Z,2.20
2022-10-06T00:30:56.307Z,1.47
2022-10-06T00:33:24.864Z,2.43
2022-10-06T00:36:01.373Z,1.43
2022-10-06T00:38:30.172Z,1.70
2022-10-06T00:40:58.908Z,2.20
2022-10-06T00:43:47.449Z,1.77
2022-10-06T00:46:18.006Z,1.97
2022-10-06T00:48:48.524Z,2.67
2022-10-06T00:51:18.117Z,1.63
2022-10-06T00:53:46.361Z,2.00
2022-10-06T00:56:14.795Z,1.87
2022-10-06T00:58:42.955Z,2.30
2022-10-06T01:01:11.762Z,2.03
2022-10-06T01:03:41.918Z,3.00
2022-10-06T01:06:10.234Z,1.60
2022-10-06T01:08:40.036Z,1.40
2022-10-06T01:11:08.375Z,1.90
2022-10-06T01:13:36.791Z,1.57
2022-10-06T01:16:07.385Z,2.40
2022-10-06T01:18:36.863Z,1.70
2022-10-06T01:21:07.540Z,2.23
2022-10-06T01:23:37.194Z,1.97
2022-10-06T01:26:06.448Z,1.60
2022-10-06T01:28:34.767Z,2.00
2022-10-06T01:31:04.299Z,2.20
2022-10-06T01:33:32.596Z,1.97
2022-10-06T01:36:00.906Z,2.30
2022-10-06T01:38:29.556Z,1.90
2022-10-06T01:40:59.260Z,1.70
2022-10-06T01:43:27.476Z,2.00
2022-10-06T01:45:56.623Z,1.83
2022-10-06T01:48:25.362Z,1.67
2022-10-06T01:50:53.880Z,1.70
2022-10-06T01:53:22.663Z,1.93
2022-10-06T01:55:51.013Z,2.40
2022-10-06T01:58:20.570Z,1.93
2022-10-06T02:00:50.767Z,2.43
2022-10-06T02:03:18.993Z,1.90
2022-10-06T02:05:47.152Z,2.20
2022-10-06T02:08:15.433Z,2.17
2022-10-06T02:10:43.649Z,1.90
2022-10-06T02:13:11.880Z,1.90
2022-10-06T02:15:41.449Z,2.27
2022-10-06T02:18:09.728Z,2.17
2022-10-06T02:20:37.978Z,2.37
2022-10-06T02:23:06.376Z,1.47
2022-10-06T02:25:34.564Z,2.53
2022-10-06T02:28:02.757Z,3.23
2022-10-06T02:30:30.998Z,2.37
2022-10-06T02:33:00.536Z,3.07
2022-10-06T02:35:28.684Z,2.70
2022-10-06T02:37:57.619Z,2.17
2022-10-06T02:40:25.797Z,2.80
2022-10-06T02:42:53.955Z,3.10
2022-10-06T02:45:22.123Z,2.53
2022-10-06T02:47:50.565Z,1.60
2022-10-06T02:50:20.637Z,2.37
2022-10-06T02:52:48.832Z,2.80
2022-10-06T02:55:17.098Z,2.70
2022-10-06T02:57:45.244Z,2.30
2022-10-06T03:00:14.828Z,1.67
2022-10-06T03:02:43.139Z,2.10
2022-10-06T03:05:11.538Z,2.17
2022-10-06T03:07:41.084Z,2.50
2022-10-06T03:10:09.996Z,2.13
2022-10-06T03:12:38.226Z,1.70
2022-10-06T03:15:07.929Z,1.77
2022-10-06T03:17:36.097Z,3.00
2022-10-06T03:20:04.295Z,2.13
2022-10-06T03:22:32.495Z,2.07
2022-10-06T03:25:02.112Z,2.80
2022-10-06T03:27:30.294Z,2.53
2022-10-06T03:29:58.481Z,1.80
2022-10-06T03:32:26.663Z,2.00
2022-10-06T03:34:54.863Z,2.70
2022-10-06T03:37:23.157Z,3.73
2022-10-06T03:39:51.608Z,2.13
2022-10-06T03:42:21.175Z,2.17
2022-10-06T03:44:49.393Z,2.47
2022-10-06T03:47:17.805Z,2.57
2022-10-06T03:49:46.012Z,2.00
2022-10-06T03:52:14.211Z,2.20
2022-10-06T03:54:42.444Z,2.00
2022-10-06T03:57:10.597Z,2.13
2022-10-06T03:59:40.165Z,2.77
2022-10-06T04:02:08.444Z,2.70
2022-10-06T04:04:36.680Z,2.47
2022-10-06T04:07:04.864Z,2.03
2022-10-06T04:09:33.031Z,2.27
2022-10-06T04:12:01.195Z,2.63
2022-10-06T04:14:29.363Z,3.10
2022-10-06T04:16:59.310Z,1.90
2022-10-06T04:19:27.545Z,3.57
2022-10-06T04:21:55.708Z,2.90
2022-10-06T04:24:23.896Z,1.80
2022-10-06T04:26:52.347Z,2.70
2022-10-06T04:29:21.045Z,2.00
2022-10-06T04:31:50.461Z,1.90
2022-10-06T04:34:21.357Z,4.57
2022-10-06T04:36:49.612Z,2.30
2022-10-06T04:39:17.819Z,2.50
2022-10-06T04:41:47.301Z,2.37
2022-10-06T04:44:15.704Z,4.33
2022-10-06T04:46:45.020Z,2.20
2022-10-06T04:49:19.679Z,2.47
2022-10-06T04:51:50.021Z,2.30
2022-10-06T04:54:18.622Z,2.50
2022-10-06T04:56:46.885Z,2.67
2022-10-06T04:59:15.120Z,2.50
2022-10-06T05:01:43.296Z,2.33
2022-10-06T05:04:11.906Z,2.37
2022-10-06T05:06:41.005Z,2.43
2022-10-06T05:09:11.479Z,2.50
2022-10-06T05:11:39.857Z,2.10
2022-10-06T05:14:08.367Z,2.33
2022-10-06T05:16:38.077Z,2.50
2022-10-06T05:19:06.539Z,3.10
2022-10-06T05:21:34.966Z,2.47
2022-10-06T05:24:03.604Z,2.50
2022-10-06T05:26:33.860Z,2.30
2022-10-06T05:29:02.255Z,3.90
2022-10-06T05:31:31.721Z,2.90
2022-10-06T05:34:00.183Z,1.90
2022-10-06T05:36:29.750Z,2.70
2022-10-06T05:38:58.290Z,2.93
2022-10-06T05:41:29.039Z,2.30
2022-10-06T05:43:58.945Z,4.37
2022-10-06T05:46:28.415Z,3.20
2022-10-06T05:48:58.223Z,2.17
2022-10-06T05:51:30.687Z,3.30
2022-10-06T05:53:59.358Z,2.40
2022-10-06T05:56:28.688Z,2.43
2022-10-06T05:58:57.493Z,2.60
2022-10-06T06:01:27.714Z,4.40
2022-10-06T06:03:57.240Z,2.90
2022-10-06T06:06:26.299Z,3.30
2022-10-06T06:08:55.258Z,2.70
2022-10-06T06:11:25.445Z,3.30
2022-10-06T06:13:54.777Z,2.50
2022-10-06T06:16:22.270Z,3.27
2022-10-06T06:18:52.111Z,2.80
2022-10-06T06:21:20.302Z,3.00
2022-10-06T06:23:49.049Z,2.20
2022-10-06T06:26:18.309Z,2.70
2022-10-06T06:28:48.500Z,3.47
2022-10-06T06:31:20.293Z,2.80
2022-10-06T06:33:49.512Z,3.67
2022-10-06T06:36:19.946Z,2.80
2022-10-06T06:38:49.677Z,2.83
2022-10-06T06:41:18.442Z,2.67
2022-10-06T06:43:47.165Z,2.73
2022-10-06T06:46:16.009Z,4.47
2022-10-06T06:48:45.038Z,3.10
2022-10-06T06:51:13.500Z,3.27
2022-10-06T06:53:43.096Z,3.07
2022-10-06T06:56:11.282Z,3.00
2022-10-06T06:58:40.539Z,3.37
2022-10-06T07:01:13.649Z,4.10
2022-10-06T07:03:58.657Z,4.10
2022-10-06T07:06:29.209Z,3.90
2022-10-06T07:08:59.280Z,3.90
2022-10-06T07:11:28.615Z,4.90
2022-10-06T07:13:58.064Z,2.97
2022-10-06T07:16:44.433Z,3.10
2022-10-06T07:19:30.777Z,3.60
2022-10-06T07:22:18.314Z,4.27
2022-10-06T07:25:06.134Z,3.00
2022-10-06T07:27:35.501Z,3.53
2022-10-06T07:30:03.752Z,3.27
2022-10-06T07:32:32.273Z,3.40
2022-10-06T07:35:00.891Z,3.70
2022-10-06T07:37:29.873Z,3.80
2022-10-06T07:39:59.382Z,3.30
2022-10-06T07:42:27.604Z,4.03
2022-10-06T07:45:13.375Z,3.70
2022-10-06T07:47:41.585Z,4.77
2022-10-06T07:50:12.974Z,3.10
2022-10-06T07:52:41.195Z,3.23
2022-10-06T07:55:17.094Z,4.17
2022-10-06T07:57:46.350Z,2.50
2022-10-06T08:00:16.390Z,2.93
2022-10-06T08:02:44.746Z,3.40
2022-10-06T08:05:12.958Z,3.50
2022-10-06T08:07:41.176Z,3.10
2022-10-06T08:10:11.318Z,3.00
2022-10-06T08:12:40.637Z,2.90
2022-10-06T08:15:11.666Z,3.80
2022-10-06T08:17:40.388Z,3.33
2022-10-06T08:20:09.666Z,3.07
2022-10-06T08:22:38.764Z,3.57
2022-10-06T08:25:07.651Z,4.90
2022-10-06T08:27:40.440Z,3.43
2022-10-06T08:30:09.311Z,4.00
2022-10-06T08:32:37.589Z,1.77
2022-10-06T08:35:05.948Z,2.93
2022-10-06T08:37:34.137Z,2.83
2022-10-06T08:40:02.301Z,2.27
2022-10-06T08:42:33.852Z,4.10
2022-10-06T08:45:05.903Z,3.07
2022-10-06T08:47:36.408Z,4.57
2022-10-06T08:50:06.498Z,3.87
2022-10-06T08:52:42.673Z,3.43
2022-10-06T08:55:16.660Z,3.73
2022-10-06T08:57:48.255Z,2.90
2022-10-06T09:00:21.248Z,2.90
2022-10-06T09:02:50.892Z,4.10
2022-10-06T09:05:25.425Z,2.87
2022-10-06T09:07:58.946Z,3.83
2022-10-06T09:10:32.128Z,3.17
2022-10-06T09:13:04.817Z,3.27
2022-10-06T09:15:36.854Z,3.40
2022-10-06T09:18:10.714Z,3.00
2022-10-06T09:20:42.499Z,3.40
2022-10-06T09:23:13.620Z,2.80
2022-10-06T09:25:41.861Z,2.57
2022-10-06T09:28:11.812Z,2.73
2022-10-06T09:30:42.826Z,4.17
2022-10-06T09:33:15.529Z,2.50
2022-10-06T09:36:06.187Z,2.93
2022-10-06T09:38:48.195Z,2.33
2022-10-06T09:41:16.957Z,2.00
2022-10-06T09:43:53.398Z,2.43
2022-10-06T09:46:23.629Z,2.90
2022-10-06T09:49:07.317Z,2.20
2022-10-06T09:51:36.367Z,1.90
2022-10-06T09:54:14.851Z,2.60
2022-10-06T09:56:43.561Z,2.00
2022-10-06T09:59:20.286Z,1.70
2022-10-06T10:01:55.194Z,2.00
2022-10-06T10:04:25.741Z,2.33
2022-10-06T10:06:54.327Z,2.10
2022-10-06T10:09:27.312Z,2.10
2022-10-06T10:12:19.848Z,3.53
2022-10-06T10:14:48.168Z,1.93
2022-10-06T10:17:19.886Z,2.10
2022-10-06T10:19:54.111Z,2.10
2022-10-06T10:22:23.557Z,2.17
2022-10-06T10:24:55.366Z,1.83
2022-10-06T10:27:27.357Z,2.30
2022-10-06T10:30:07.190Z,2.00
2022-10-06T10:32:44.777Z,1.97
2022-10-06T10:35:19.752Z,2.00
2022-10-06T10:37:51.110Z,2.13
2022-10-06T10:40:24.983Z,1.90
2022-10-06T10:42:56.170Z,1.70
2022-10-06T10:45:26.358Z,1.53
2022-10-06T10:47:56.226Z,2.43
2022-10-06T10:50:26.643Z,2.00
2022-10-06T10:52:58.896Z,1.40
2022-10-06T10:55:29.521Z,1.50
2022-10-06T10:57:58.778Z,1.60
2022-10-06T11:00:29.062Z,1.70
2022-10-06T11:02:59.793Z,1.20
2022-10-06T11:05:33.401Z,1.80
2022-10-06T11:08:04.853Z,1.53
2022-10-06T11:10:35.672Z,1.50
2022-10-06T11:13:15.659Z,1.30
2022-10-06T11:15:50.269Z,1.70
2022-10-06T11:18:27.099Z,1.00
2022-10-06T11:20:57.795Z,1.70
2022-10-06T11:23:32.822Z,1.70
2022-10-06T11:26:09.132Z,1.50
2022-10-06T11:28:42.954Z,1.77
2022-10-06T11:31:21.906Z,1.70
2022-10-06T11:33:54.268Z,1.67
2022-10-06T11:36:28.771Z,1.50
2022-10-06T11:39:00.917Z,2.00
2022-10-06T11:41:31.568Z,2.30
2022-10-06T11:44:03.530Z,1.90
2022-10-06T11:46:35.756Z,1.83
2022-10-06T11:49:22.797Z,1.70
2022-10-06T11:51:55.790Z,1.23
2022-10-06T11:54:36.964Z,1.83
2022-10-06T11:57:05.195Z,1.37
2022-10-06T11:59:33.372Z,1.17
2022-10-06T12:02:02.963Z,2.20
2022-10-06T12:04:31.461Z,2.10
2022-10-06T12:07:07.454Z,1.50
2022-10-06T12:09:53.551Z,1.20
2022-10-06T12:12:40.345Z,3.00
2022-10-06T12:17:05.648Z,1.63
2022-10-06T12:18:08.565Z,1.80
2022-10-06T12:20:42.939Z,1.40
2022-10-06T12:23:19.812Z,1.53
2022-10-06T12:25:52.114Z,2.20
2022-10-06T12:28:27.626Z,1.83
2022-10-06T12:31:03.285Z,2.40
2022-10-06T12:33:37.161Z,2.10
2022-10-06T12:36:06.133Z,1.70
2022-10-06T12:38:52.039Z,1.80
2022-10-06T12:41:41.560Z,2.30
2022-10-06T12:44:23.295Z,1.73
2022-10-06T12:46:51.799Z,2.40
2022-10-06T12:49:31.852Z,1.60
2022-10-06T12:52:06.620Z,1.77
2022-10-06T12:54:37.329Z,1.97
2022-10-06T12:57:18.027Z,2.20
2022-10-06T12:59:46.356Z,1.70
2022-10-06T13:02:16.430Z,1.70
2022-10-06T13:04:49.049Z,1.83
2022-10-06T13:07:18.374Z,1.40
2022-10-06T13:09:46.961Z,1.23
2022-10-06T13:12:24.139Z,1.40
2022-10-06T13:15:07.205Z,2.37
2022-10-06T13:17:35.424Z,2.20
2022-10-06T13:20:03.662Z,1.50
2022-10-06T13:22:31.854Z,2.00
2022-10-06T13:25:01.537Z,1.67
2022-10-06T13:27:31.066Z,1.37
2022-10-06T13:30:13.369Z,1.30
2022-10-06T13:32:41.540Z,1.83
2022-10-06T13:35:12.970Z,1.30
2022-10-06T13:37:41.245Z,1.50
2022-10-06T13:40:21.842Z,1.43
2022-10-06T13:42:57.334Z,1.40
2022-10-06T13:45:26.039Z,1.90
2022-10-06T13:48:03.990Z,1.50
2022-10-06T13:50:32.273Z,1.50
2022-10-06T13:53:01.711Z,1.30
2022-10-06T13:55:31.888Z,1.70
2022-10-06T13:58:11.153Z,1.80
2022-10-06T14:00:50.234Z,1.20
2022-10-06T14:03:23.847Z,1.90
2022-10-06T14:05:52.984Z,2.17
2022-10-06T14:08:24.774Z,1.37
2022-10-06T14:10:54.602Z,1.63
2022-10-06T14:13:26.532Z,1.73
2022-10-06T14:15:56.100Z,2.07
2022-10-06T14:18:25.507Z,2.10
2022-10-06T14:23:41.918Z,1.83
2022-10-06T14:26:11.140Z,1.90
2022-10-06T14:28:42.153Z,1.70
2022-10-06T14:31:14.453Z,1.53
2022-10-06T14:33:43.145Z,1.53
2022-10-06T14:36:19.205Z,1.43
2022-10-06T14:38:50.966Z,1.80
2022-10-06T14:41:20.442Z,1.93
2022-10-06T14:43:50.559Z,2.10
2022-10-06T14:46:18.799Z,1.90
2022-10-06T14:48:47.061Z,1.60
2022-10-06T14:51:16.631Z,1.70
2022-10-06T14:53:44.917Z,1.67
2022-10-06T14:56:15.909Z,1.27
2022-10-06T14:58:45.916Z,2.13
2022-10-06T15:01:17.276Z,1.77
2022-10-06T15:03:49.067Z,1.80
2022-10-06T15:06:35.394Z,1.23
2022-10-06T15:09:03.551Z,1.70
2022-10-06T15:11:31.851Z,1.60
2022-10-06T15:14:00.339Z,2.27
2022-10-06T15:16:30.301Z,1.73
2022-10-06T15:18:59.917Z,1.60
2022-10-06T15:21:29.009Z,2.67
2022-10-06T15:23:57.873Z,1.20
2022-10-06T15:26:44.028Z,1.50
2022-10-06T15:29:13.282Z,1.30
2022-10-06T15:31:43.802Z,1.50
2022-10-06T15:34:12.657Z,2.10
2022-10-06T15:36:41.592Z,1.87
2022-10-06T15:39:10.913Z,1.50
2022-10-06T15:41:40.509Z,2.17
2022-10-06T15:44:09.181Z,1.40
2022-10-06T15:46:38.131Z,1.77
2022-10-06T15:49:08.679Z,1.80
2022-10-06T15:51:40.374Z,2.17
2022-10-06T15:54:08.588Z,1.70
2022-10-06T15:56:38.246Z,2.93
2022-10-06T15:59:07.053Z,1.80
2022-10-06T16:01:37.432Z,1.70
2022-10-06T16:04:12.036Z,2.00
2022-10-06T16:06:43.998Z,1.57
2022-10-06T16:09:13.133Z,1.60
2022-10-06T16:11:41.360Z,1.40
2022-10-06T16:14:10.265Z,1.70
2022-10-06T16:16:43.337Z,1.80
2022-10-06T16:19:11.939Z,2.03
2022-10-06T16:21:41.856Z,2.00
2022-10-06T16:24:10.347Z,1.93
2022-10-06T16:26:38.873Z,1.60
2022-10-06T16:29:07.160Z,1.63
2022-10-06T16:31:35.406Z,2.00
2022-10-06T16:34:03.631Z,2.23
2022-10-06T16:36:31.878Z,2.13
2022-10-06T16:39:01.457Z,1.70
2022-10-06T16:41:29.663Z,1.93
2022-10-06T16:43:57.954Z,2.53
2022-10-06T16:46:27.115Z,1.63
2022-10-06T16:48:56.361Z,1.93
2022-10-06T16:51:26.421Z,2.33
2022-10-06T16:53:56.305Z,2.00
2022-10-06T16:56:26.912Z,2.17
2022-10-06T16:58:55.680Z,1.70
2022-10-06T17:01:24.835Z,2.70
2022-10-06T17:03:59.343Z,2.50
2022-10-06T17:06:27.626Z,1.90
2022-10-06T17:08:56.596Z,2.20
2022-10-06T17:11:26.527Z,2.47
2022-10-06T17:13:55.514Z,2.13
2022-10-06T17:16:24.800Z,2.83
2022-10-06T17:18:54.117Z,1.83
2022-10-06T17:21:44.106Z,2.30
2022-10-06T17:24:14.750Z,2.20
2022-10-06T17:26:45.197Z,2.40
2022-10-06T17:29:14.118Z,2.43
2022-10-06T17:31:43.688Z,2.17
2022-10-06T17:34:12.513Z,1.93
2022-10-06T17:36:41.225Z,2.33
2022-10-06T17:39:10.192Z,2.20
2022-10-06T17:41:40.137Z,1.80
2022-10-06T17:44:13.296Z,2.47
2022-10-06T17:46:42.571Z,1.97
2022-10-06T17:49:11.731Z,2.03
2022-10-06T17:51:41.361Z,1.70
2022-10-06T17:54:12.770Z,2.10
2022-10-06T17:56:41.150Z,3.20
2022-10-06T17:59:13.591Z,1.90
2022-10-06T18:01:44.126Z,2.33
2022-10-06T18:04:15.567Z,2.43
2022-10-06T18:06:44.753Z,2.13
2022-10-06T18:09:13.257Z,2.57
2022-10-06T18:11:43.599Z,2.40
2022-10-06T18:14:14.030Z,2.73
2022-10-06T18:16:43.029Z,3.57
2022-10-06T18:19:12.295Z,2.60
2022-10-06T18:21:41.697Z,2.83
2022-10-06T18:24:11.603Z,2.90
2022-10-06T18:26:41.807Z,3.10
2022-10-06T18:29:10.490Z,2.97
2022-10-06T18:31:40.357Z,3.10
2022-10-06T18:36:10.739Z,2.80
2022-10-06T18:36:59.308Z,4.00
2022-10-06T18:39:31.170Z,4.40
2022-10-06T18:42:02.616Z,3.50
2022-10-06T18:44:56.933Z,4.60
2022-10-06T18:47:44.404Z,4.47
2022-10-06T18:50:12.773Z,3.97
2022-10-06T18:52:43.601Z,4.10
2022-10-06T18:55:13.282Z,3.90
2022-10-06T18:57:41.732Z,3.20
2022-10-06T19:00:10.813Z,4.33
2022-10-06T19:02:41.349Z,3.80
2022-10-06T19:05:11.979Z,3.50
2022-10-06T19:07:40.511Z,4.07
2022-10-06T19:10:10.077Z,3.07
2022-10-06T19:12:38.243Z,3.37
2022-10-06T19:15:07.640Z,4.00
2022-10-06T19:17:35.967Z,3.93
2022-10-06T19:20:05.841Z,2.77
2022-10-06T19:22:34.722Z,4.37
2022-10-06T19:25:02.918Z,3.37
2022-10-06T19:27:31.564Z,2.90
2022-10-06T19:30:00.078Z,3.10
2022-10-06T19:32:32.025Z,4.53
2022-10-06T19:35:00.682Z,3.57
2022-10-06T19:37:31.608Z,3.40
2022-10-06T19:39:59.934Z,3.60
2022-10-06T19:42:45.687Z,3.33
2022-10-06T19:45:16.412Z,4.63
2022-10-06T19:47:45.941Z,3.20
2022-10-06T19:50:14.751Z,3.20
2022-10-06T19:52:45.401Z,2.90
2022-10-06T19:55:13.631Z,3.10
2022-10-06T19:57:43.056Z,2.80
2022-10-06T20:00:12.115Z,3.00
2022-10-06T20:02:42.822Z,2.33
2022-10-06T20:05:11.628Z,2.30
2022-10-06T20:07:41.234Z,2.20
2022-10-06T20:10:11.892Z,2.60
2022-10-06T20:12:41.689Z,3.67
2022-10-06T20:15:10.920Z,4.20
2022-10-06T20:17:41.485Z,3.33
2022-10-06T20:20:10.361Z,5.40
2022-10-06T20:22:38.538Z,5.80
2022-10-06T20:25:07.094Z,6.10
2022-10-06T20:27:36.750Z,5.00
2022-10-06T20:30:05.121Z,4.40
2022-10-06T20:32:33.423Z,4.40
2022-10-06T20:35:01.898Z,4.60
2022-10-06T20:37:30.173Z,5.33
2022-10-06T20:40:16.146Z,4.50
2022-10-06T20:42:49.164Z,4.20
2022-10-06T20:45:17.966Z,4.60
2022-10-06T20:47:47.761Z,4.33
2022-10-06T20:50:15.969Z,4.27
2022-10-06T20:52:44.167Z,4.20
2022-10-06T20:55:13.349Z,4.33
2022-10-06T20:57:42.451Z,4.17
2022-10-06T21:00:14.242Z,4.73
2022-10-06T21:02:42.504Z,4.50
2022-10-06T21:05:10.943Z,3.43
2022-10-06T21:07:39.148Z,4.00
2022-10-06T21:10:07.893Z,3.57
2022-10-06T21:12:36.122Z,2.80
2022-10-06T21:15:04.340Z,2.83
2022-10-06T21:17:33.944Z,2.50
2022-10-06T21:20:02.166Z,2.80
2022-10-06T21:22:31.445Z,2.80
2022-10-06T21:24:59.690Z,2.60
2022-10-06T21:27:28.514Z,3.13
2022-10-06T21:29:56.922Z,2.93
2022-10-06T21:32:25.321Z,2.60
2022-10-06T21:34:55.852Z,2.87
2022-10-06T21:37:24.066Z,2.80
2022-10-06T21:39:52.469Z,2.60
2022-10-06T21:42:20.794Z,2.60
2022-10-06T21:44:49.010Z,3.50
2022-10-06T21:47:17.225Z,3.10
2022-10-06T21:49:45.405Z,3.53
2022-10-06T21:52:14.995Z,2.80
2022-10-06T21:54:43.236Z,2.50
2022-10-06T21:57:11.436Z,2.60
2022-10-06T21:59:39.655Z,2.70
2022-10-06T22:02:07.934Z,3.00
2022-10-06T22:04:37.472Z,3.40
2022-10-06T22:07:05.977Z,2.40
2022-10-06T22:09:36.603Z,2.57
2022-10-06T22:12:04.886Z,2.40
2022-10-06T22:14:33.091Z,2.10
2022-10-06T22:17:01.280Z,2.37
2022-10-06T22:19:29.480Z,2.33
2022-10-06T22:21:57.740Z,3.20
2022-10-06T22:24:25.928Z,2.27
2022-10-06T22:26:55.529Z,1.87
2022-10-06T22:29:23.879Z,2.47
2022-10-06T22:31:52.163Z,4.17
2022-10-06T22:34:21.456Z,3.07
2022-10-06T22:36:49.727Z,3.30
2022-10-06T22:39:18.159Z,2.50
2022-10-06T22:41:46.498Z,2.30
2022-10-06T22:44:16.071Z,2.23
2022-10-06T22:46:44.694Z,2.23
2022-10-06T22:49:12.960Z,2.23
2022-10-06T22:51:41.154Z,2.40
2022-10-06T22:54:09.571Z,2.30
2022-10-06T22:56:37.732Z,2.90
2022-10-06T23:03:11.995Z,2.63
2022-10-06T23:05:41.678Z,2.20
2022-10-06T23:08:09.976Z,2.07
2022-10-06T23:10:38.409Z,2.17
2022-10-06T23:13:06.683Z,2.30
2022-10-06T23:15:34.862Z,2.00
2022-10-06T23:18:04.161Z,2.73
2022-10-06T23:20:32.327Z,2.33
2022-10-06T23:23:01.892Z,2.33
2022-10-06T23:25:30.092Z,2.10
2022-10-06T23:27:58.360Z,1.87
2022-10-06T23:30:26.643Z,1.80
2022-10-06T23:32:54.838Z,1.63
2022-10-06T23:35:22.976Z,2.37
2022-10-06T23:37:51.137Z,1.80
2022-10-06T23:40:20.705Z,2.43
2022-10-06T23:42:48.855Z,2.40
2022-10-06T23:45:17.056Z,2.13
2022-10-06T23:47:45.712Z,2.50
2022-10-06T23:50:15.246Z,1.80
2022-10-06T23:52:43.432Z,2.70
2022-10-06T23:55:11.687Z,2.03
2022-10-06T23:57:41.543Z,2.30
